sensor_id;sensor_type;location;lat;lon;timestamp;P1;durP1;ratioP1;P2;durP2;ratioP2
69240;SDS011;56352;55.750;13.198;2023-03-16T00:02:02;4.65;;;1.10;;
69240;SDS011;56352;55.750;13.198;2023-03-16T00:04:28;2.55;;;0.95;;
69240;SDS011;56352;55.750;13.198;2023-03-16T00:06:56;1.45;;;0.80;;
69240;SDS011;56352;55.750;13.198;2023-03-16T00:09:22;1.90;;;0.80;;
69240;SDS011;56352;55.750;13.198;2023-03-16T00:11:56;4.82;;;1.15;;
69240;SDS011;56352;55.750;13.198;2023-03-16T00:14:24;2.63;;;0.90;;
69240;SDS011;56352;55.750;13.198;2023-03-16T00:16:50;2.85;;;0.90;;
69240;SDS011;56352;55.750;13.198;2023-03-16T00:19:17;4.53;;;0.88;;
69240;SDS011;56352;55.750;13.198;2023-03-16T00:21:43;2.25;;;1.05;;
69240;SDS011;56352;55.750;13.198;2023-03-16T00:24:10;1.55;;;0.73;;
69240;SDS011;56352;55.750;13.198;2023-03-16T00:26:37;3.22;;;0.60;;
69240;SDS011;56352;55.750;13.198;2023-03-16T00:29:04;1.65;;;0.65;;
69240;SDS011;56352;55.750;13.198;2023-03-16T00:31:30;1.13;;;0.68;;
69240;SDS011;56352;55.750;13.198;2023-03-16T00:33:59;1.42;;;0.40;;
69240;SDS011;56352;55.750;13.198;2023-03-16T00:36:28;1.08;;;0.30;;
69240;SDS011;56352;55.750;13.198;2023-03-16T00:38:55;1.38;;;0.50;;
69240;SDS011;56352;55.750;13.198;2023-03-16T00:41:21;1.85;;;0.50;;
69240;SDS011;56352;55.750;13.198;2023-03-16T00:43:48;0.47;;;0.30;;
69240;SDS011;56352;55.750;13.198;2023-03-16T00:46:16;1.73;;;0.30;;
69240;SDS011;56352;55.750;13.198;2023-03-16T00:48:44;0.32;;;0.32;;
69240;SDS011;56352;55.750;13.198;2023-03-16T00:51:12;0.20;;;0.20;;
69240;SDS011;56352;55.750;13.198;2023-03-16T00:53:40;0.50;;;0.30;;
69240;SDS011;56352;55.750;13.198;2023-03-16T00:56:07;0.45;;;0.30;;
69240;SDS011;56352;55.750;13.198;2023-03-16T00:58:35;0.20;;;0.20;;
69240;SDS011;56352;55.750;13.198;2023-03-16T01:01:05;0.70;;;0.40;;
69240;SDS011;56352;55.750;13.198;2023-03-16T01:03:33;0.40;;;0.30;;
69240;SDS011;56352;55.750;13.198;2023-03-16T01:06:03;1.25;;;0.28;;
69240;SDS011;56352;55.750;13.198;2023-03-16T01:08:31;0.30;;;0.30;;
69240;SDS011;56352;55.750;13.198;2023-03-16T01:11:02;0.45;;;0.40;;
69240;SDS011;56352;55.750;13.198;2023-03-16T01:13:29;2.17;;;0.40;;
69240;SDS011;56352;55.750;13.198;2023-03-16T01:15:58;1.65;;;0.20;;
69240;SDS011;56352;55.750;13.198;2023-03-16T01:18:25;2.25;;;0.38;;
69240;SDS011;56352;55.750;13.198;2023-03-16T01:20:51;0.38;;;0.30;;
69240;SDS011;56352;55.750;13.198;2023-03-16T01:23:21;0.60;;;0.25;;
69240;SDS011;56352;55.750;13.198;2023-03-16T01:25:47;0.50;;;0.28;;
69240;SDS011;56352;55.750;13.198;2023-03-16T01:28:21;0.50;;;0.35;;
69240;SDS011;56352;55.750;13.198;2023-03-16T01:30:50;0.93;;;0.20;;
69240;SDS011;56352;55.750;13.198;2023-03-16T01:33:23;1.08;;;0.20;;
69240;SDS011;56352;55.750;13.198;2023-03-16T01:35:53;0.43;;;0.30;;
69240;SDS011;56352;55.750;13.198;2023-03-16T01:38:20;0.77;;;0.40;;
69240;SDS011;56352;55.750;13.198;2023-03-16T01:40:47;0.70;;;0.55;;
69240;SDS011;56352;55.750;13.198;2023-03-16T01:43:17;3.53;;;0.60;;
69240;SDS011;56352;55.750;13.198;2023-03-16T01:51:19;1.02;;;0.40;;
69240;SDS011;56352;55.750;13.198;2023-03-16T01:53:47;0.40;;;0.40;;
69240;SDS011;56352;55.750;13.198;2023-03-16T01:56:16;0.88;;;0.60;;
69240;SDS011;56352;55.750;13.198;2023-03-16T01:58:44;0.70;;;0.45;;
69240;SDS011;56352;55.750;13.198;2023-03-16T02:01:11;0.85;;;0.50;;
69240;SDS011;56352;55.750;13.198;2023-03-16T02:03:39;1.33;;;0.45;;
69240;SDS011;56352;55.750;13.198;2023-03-16T02:08:33;1.65;;;0.50;;
69240;SDS011;56352;55.750;13.198;2023-03-16T02:11:00;0.60;;;0.45;;
69240;SDS011;56352;55.750;13.198;2023-03-16T02:13:26;0.80;;;0.38;;
69240;SDS011;56352;55.750;13.198;2023-03-16T02:15:54;0.90;;;0.50;;
69240;SDS011;56352;55.750;13.198;2023-03-16T02:18:21;1.23;;;0.63;;
69240;SDS011;56352;55.750;13.198;2023-03-16T02:20:56;1.17;;;0.60;;
69240;SDS011;56352;55.750;13.198;2023-03-16T02:23:24;4.28;;;1.02;;
69240;SDS011;56352;55.750;13.198;2023-03-16T02:28:23;2.17;;;0.98;;
69240;SDS011;56352;55.750;13.198;2023-03-16T02:30:50;4.05;;;1.00;;
69240;SDS011;56352;55.750;13.198;2023-03-16T02:33:16;4.82;;;1.35;;
69240;SDS011;56352;55.750;13.198;2023-03-16T02:35:44;4.47;;;1.20;;
69240;SDS011;56352;55.750;13.198;2023-03-16T02:38:11;3.28;;;1.23;;
69240;SDS011;56352;55.750;13.198;2023-03-16T02:40:37;2.97;;;1.10;;
69240;SDS011;56352;55.750;13.198;2023-03-16T02:43:05;4.28;;;1.33;;
69240;SDS011;56352;55.750;13.198;2023-03-16T02:45:42;3.35;;;1.60;;
69240;SDS011;56352;55.750;13.198;2023-03-16T02:48:21;4.95;;;1.00;;
69240;SDS011;56352;55.750;13.198;2023-03-16T02:50:49;4.13;;;1.10;;
69240;SDS011;56352;55.750;13.198;2023-03-16T02:53:16;5.65;;;1.73;;
69240;SDS011;56352;55.750;13.198;2023-03-16T02:55:43;4.25;;;1.13;;
69240;SDS011;56352;55.750;13.198;2023-03-16T02:58:11;1.50;;;0.90;;
69240;SDS011;56352;55.750;13.198;2023-03-16T03:00:38;4.90;;;1.08;;
69240;SDS011;56352;55.750;13.198;2023-03-16T03:03:05;2.92;;;1.10;;
69240;SDS011;56352;55.750;13.198;2023-03-16T03:05:33;1.87;;;1.00;;
69240;SDS011;56352;55.750;13.198;2023-03-16T03:08:00;4.75;;;1.10;;
69240;SDS011;56352;55.750;13.198;2023-03-16T03:10:26;3.58;;;1.23;;
69240;SDS011;56352;55.750;13.198;2023-03-16T03:12:54;1.10;;;0.75;;
69240;SDS011;56352;55.750;13.198;2023-03-16T03:15:20;2.70;;;0.88;;
69240;SDS011;56352;55.750;13.198;2023-03-16T03:17:47;2.05;;;1.30;;
69240;SDS011;56352;55.750;13.198;2023-03-16T03:20:13;2.78;;;0.82;;
69240;SDS011;56352;55.750;13.198;2023-03-16T03:22:42;1.65;;;0.85;;
69240;SDS011;56352;55.750;13.198;2023-03-16T03:25:11;2.55;;;0.77;;
69240;SDS011;56352;55.750;13.198;2023-03-16T03:27:37;3.33;;;1.15;;
69240;SDS011;56352;55.750;13.198;2023-03-16T03:30:05;4.05;;;0.90;;
69240;SDS011;56352;55.750;13.198;2023-03-16T03:32:32;4.35;;;1.10;;
69240;SDS011;56352;55.750;13.198;2023-03-16T03:34:58;1.75;;;0.90;;
69240;SDS011;56352;55.750;13.198;2023-03-16T03:37:25;4.35;;;1.35;;
69240;SDS011;56352;55.750;13.198;2023-03-16T03:39:51;3.08;;;0.85;;
69240;SDS011;56352;55.750;13.198;2023-03-16T03:42:18;2.30;;;1.10;;
69240;SDS011;56352;55.750;13.198;2023-03-16T03:44:45;2.22;;;0.70;;
69240;SDS011;56352;55.750;13.198;2023-03-16T03:47:11;1.92;;;0.98;;
69240;SDS011;56352;55.750;13.198;2023-03-16T03:49:38;2.63;;;0.90;;
69240;SDS011;56352;55.750;13.198;2023-03-16T03:52:04;2.85;;;0.95;;
69240;SDS011;56352;55.750;13.198;2023-03-16T03:54:31;3.22;;;1.17;;
69240;SDS011;56352;55.750;13.198;2023-03-16T03:56:57;1.23;;;0.80;;
69240;SDS011;56352;55.750;13.198;2023-03-16T03:59:23;1.33;;;0.82;;
69240;SDS011;56352;55.750;13.198;2023-03-16T04:01:50;6.05;;;1.45;;
69240;SDS011;56352;55.750;13.198;2023-03-16T04:04:19;4.30;;;1.20;;
69240;SDS011;56352;55.750;13.198;2023-03-16T04:06:45;5.82;;;1.00;;
69240;SDS011;56352;55.750;13.198;2023-03-16T04:09:12;2.00;;;0.82;;
69240;SDS011;56352;55.750;13.198;2023-03-16T04:11:38;3.35;;;1.08;;
69240;SDS011;56352;55.750;13.198;2023-03-16T04:14:05;2.10;;;1.20;;
69240;SDS011;56352;55.750;13.198;2023-03-16T04:16:31;2.55;;;0.85;;
69240;SDS011;56352;55.750;13.198;2023-03-16T04:18:59;1.38;;;0.70;;
69240;SDS011;56352;55.750;13.198;2023-03-16T04:21:26;3.55;;;0.98;;
69240;SDS011;56352;55.750;13.198;2023-03-16T04:23:53;1.02;;;0.80;;
69240;SDS011;56352;55.750;13.198;2023-03-16T04:26:20;5.85;;;0.90;;
69240;SDS011;56352;55.750;13.198;2023-03-16T04:28:46;4.28;;;1.13;;
69240;SDS011;56352;55.750;13.198;2023-03-16T04:31:13;1.38;;;0.77;;
69240;SDS011;56352;55.750;13.198;2023-03-16T04:33:39;5.95;;;1.30;;
69240;SDS011;56352;55.750;13.198;2023-03-16T04:36:07;5.53;;;1.50;;
69240;SDS011;56352;55.750;13.198;2023-03-16T04:38:34;3.95;;;1.10;;
69240;SDS011;56352;55.750;13.198;2023-03-16T04:41:01;1.83;;;0.95;;
69240;SDS011;56352;55.750;13.198;2023-03-16T04:43:28;4.30;;;1.33;;
69240;SDS011;56352;55.750;13.198;2023-03-16T04:45:55;2.67;;;1.00;;
69240;SDS011;56352;55.750;13.198;2023-03-16T04:48:21;2.03;;;0.98;;
69240;SDS011;56352;55.750;13.198;2023-03-16T04:50:48;4.97;;;1.20;;
69240;SDS011;56352;55.750;13.198;2023-03-16T04:53:15;4.88;;;1.20;;
69240;SDS011;56352;55.750;13.198;2023-03-16T04:55:43;1.25;;;0.73;;
69240;SDS011;56352;55.750;13.198;2023-03-16T04:58:09;4.47;;;0.88;;
69240;SDS011;56352;55.750;13.198;2023-03-16T05:00:36;2.55;;;0.93;;
69240;SDS011;56352;55.750;13.198;2023-03-16T05:03:02;2.10;;;1.27;;
69240;SDS011;56352;55.750;13.198;2023-03-16T05:05:29;5.80;;;1.23;;
69240;SDS011;56352;55.750;13.198;2023-03-16T05:07:56;2.92;;;1.00;;
69240;SDS011;56352;55.750;13.198;2023-03-16T05:10:22;3.65;;;1.00;;
69240;SDS011;56352;55.750;13.198;2023-03-16T05:12:49;2.05;;;0.80;;
69240;SDS011;56352;55.750;13.198;2023-03-16T05:15:17;1.33;;;0.82;;
69240;SDS011;56352;55.750;13.198;2023-03-16T05:17:43;4.35;;;1.30;;
69240;SDS011;56352;55.750;13.198;2023-03-16T05:20:14;4.20;;;1.30;;
69240;SDS011;56352;55.750;13.198;2023-03-16T05:22:42;4.30;;;1.13;;
69240;SDS011;56352;55.750;13.198;2023-03-16T05:25:09;2.88;;;0.88;;
69240;SDS011;56352;55.750;13.198;2023-03-16T05:27:43;1.23;;;0.70;;
69240;SDS011;56352;55.750;13.198;2023-03-16T05:30:11;2.15;;;0.80;;
69240;SDS011;56352;55.750;13.198;2023-03-16T05:32:37;4.88;;;1.67;;
69240;SDS011;56352;55.750;13.198;2023-03-16T05:35:04;2.95;;;1.50;;
69240;SDS011;56352;55.750;13.198;2023-03-16T05:37:31;2.67;;;0.88;;
69240;SDS011;56352;55.750;13.198;2023-03-16T05:39:57;4.25;;;1.10;;
69240;SDS011;56352;55.750;13.198;2023-03-16T05:42:24;1.80;;;0.85;;
69240;SDS011;56352;55.750;13.198;2023-03-16T05:44:52;2.92;;;1.23;;
69240;SDS011;56352;55.750;13.198;2023-03-16T05:47:19;4.70;;;1.20;;
69240;SDS011;56352;55.750;13.198;2023-03-16T05:49:46;1.85;;;1.17;;
69240;SDS011;56352;55.750;13.198;2023-03-16T05:52:12;4.35;;;1.30;;
69240;SDS011;56352;55.750;13.198;2023-03-16T05:54:39;3.83;;;1.20;;
69240;SDS011;56352;55.750;13.198;2023-03-16T05:57:05;1.38;;;0.80;;
69240;SDS011;56352;55.750;13.198;2023-03-16T05:59:32;4.90;;;1.00;;
69240;SDS011;56352;55.750;13.198;2023-03-16T06:01:58;4.75;;;0.93;;
69240;SDS011;56352;55.750;13.198;2023-03-16T06:04:25;2.42;;;1.05;;
69240;SDS011;56352;55.750;13.198;2023-03-16T06:06:52;3.80;;;1.17;;
69240;SDS011;56352;55.750;13.198;2023-03-16T06:09:18;5.53;;;1.08;;
69240;SDS011;56352;55.750;13.198;2023-03-16T06:11:45;5.10;;;1.33;;
69240;SDS011;56352;55.750;13.198;2023-03-16T06:14:11;4.22;;;1.58;;
69240;SDS011;56352;55.750;13.198;2023-03-16T06:16:37;3.78;;;1.50;;
69240;SDS011;56352;55.750;13.198;2023-03-16T06:19:04;3.63;;;1.23;;
69240;SDS011;56352;55.750;13.198;2023-03-16T06:21:30;3.83;;;1.63;;
69240;SDS011;56352;55.750;13.198;2023-03-16T06:23:57;3.40;;;1.30;;
69240;SDS011;56352;55.750;13.198;2023-03-16T06:26:23;4.15;;;1.65;;
69240;SDS011;56352;55.750;13.198;2023-03-16T06:28:50;2.78;;;1.70;;
69240;SDS011;56352;55.750;13.198;2023-03-16T06:31:16;7.60;;;1.88;;
69240;SDS011;56352;55.750;13.198;2023-03-16T06:33:43;4.15;;;1.50;;
69240;SDS011;56352;55.750;13.198;2023-03-16T06:36:09;3.67;;;1.77;;
69240;SDS011;56352;55.750;13.198;2023-03-16T06:38:37;5.80;;;2.25;;
69240;SDS011;56352;55.750;13.198;2023-03-16T06:41:03;4.28;;;2.42;;
69240;SDS011;56352;55.750;13.198;2023-03-16T06:43:30;7.97;;;2.72;;
69240;SDS011;56352;55.750;13.198;2023-03-16T06:45:56;6.97;;;2.60;;
69240;SDS011;56352;55.750;13.198;2023-03-16T06:48:24;8.18;;;2.72;;
69240;SDS011;56352;55.750;13.198;2023-03-16T06:50:50;4.70;;;2.50;;
69240;SDS011;56352;55.750;13.198;2023-03-16T06:53:16;5.75;;;2.40;;
69240;SDS011;56352;55.750;13.198;2023-03-16T06:55:43;8.35;;;2.10;;
69240;SDS011;56352;55.750;13.198;2023-03-16T06:58:09;4.68;;;2.33;;
69240;SDS011;56352;55.750;13.198;2023-03-16T07:00:36;6.07;;;2.38;;
69240;SDS011;56352;55.750;13.198;2023-03-16T07:03:03;7.15;;;2.33;;
69240;SDS011;56352;55.750;13.198;2023-03-16T07:05:29;8.02;;;2.33;;
69240;SDS011;56352;55.750;13.198;2023-03-16T07:07:56;5.95;;;2.25;;
69240;SDS011;56352;55.750;13.198;2023-03-16T07:10:23;10.23;;;2.00;;
69240;SDS011;56352;55.750;13.198;2023-03-16T07:12:50;8.63;;;2.58;;
69240;SDS011;56352;55.750;13.198;2023-03-16T07:15:17;4.22;;;2.25;;
69240;SDS011;56352;55.750;13.198;2023-03-16T07:17:44;6.10;;;2.35;;
69240;SDS011;56352;55.750;13.198;2023-03-16T07:20:10;8.75;;;2.10;;
69240;SDS011;56352;55.750;13.198;2023-03-16T07:22:38;5.90;;;2.20;;
69240;SDS011;56352;55.750;13.198;2023-03-16T07:25:05;4.95;;;2.08;;
69240;SDS011;56352;55.750;13.198;2023-03-16T07:27:32;6.15;;;1.98;;
69240;SDS011;56352;55.750;13.198;2023-03-16T07:29:58;4.72;;;1.90;;
69240;SDS011;56352;55.750;13.198;2023-03-16T07:32:25;4.53;;;1.98;;
69240;SDS011;56352;55.750;13.198;2023-03-16T07:34:52;3.92;;;1.80;;
69240;SDS011;56352;55.750;13.198;2023-03-16T07:37:18;5.75;;;2.08;;
69240;SDS011;56352;55.750;13.198;2023-03-16T07:39:50;5.72;;;2.60;;
69240;SDS011;56352;55.750;13.198;2023-03-16T07:42:17;3.75;;;1.98;;
69240;SDS011;56352;55.750;13.198;2023-03-16T07:44:44;6.65;;;2.03;;
69240;SDS011;56352;55.750;13.198;2023-03-16T07:47:11;6.30;;;2.65;;
69240;SDS011;56352;55.750;13.198;2023-03-16T07:49:38;6.25;;;1.80;;
69240;SDS011;56352;55.750;13.198;2023-03-16T07:52:06;6.88;;;1.83;;
69240;SDS011;56352;55.750;13.198;2023-03-16T07:54:33;6.85;;;2.15;;
69240;SDS011;56352;55.750;13.198;2023-03-16T07:56:59;4.35;;;1.90;;
69240;SDS011;56352;55.750;13.198;2023-03-16T07:59:26;5.50;;;1.98;;
69240;SDS011;56352;55.750;13.198;2023-03-16T08:01:52;6.20;;;2.42;;
69240;SDS011;56352;55.750;13.198;2023-03-16T08:04:19;5.53;;;1.83;;
69240;SDS011;56352;55.750;13.198;2023-03-16T08:06:45;6.40;;;2.47;;
69240;SDS011;56352;55.750;13.198;2023-03-16T08:09:13;6.07;;;2.35;;
69240;SDS011;56352;55.750;13.198;2023-03-16T08:11:39;4.50;;;1.90;;
69240;SDS011;56352;55.750;13.198;2023-03-16T08:14:06;5.15;;;1.75;;
69240;SDS011;56352;55.750;13.198;2023-03-16T08:16:34;5.80;;;2.10;;
69240;SDS011;56352;55.750;13.198;2023-03-16T08:19:00;5.45;;;2.35;;
69240;SDS011;56352;55.750;13.198;2023-03-16T08:21:27;5.93;;;2.00;;
69240;SDS011;56352;55.750;13.198;2023-03-16T08:23:55;4.47;;;1.83;;
69240;SDS011;56352;55.750;13.198;2023-03-16T08:26:22;4.18;;;1.88;;
69240;SDS011;56352;55.750;13.198;2023-03-16T08:28:49;7.03;;;2.05;;
69240;SDS011;56352;55.750;13.198;2023-03-16T08:31:17;2.53;;;1.63;;
69240;SDS011;56352;55.750;13.198;2023-03-16T08:33:45;7.93;;;2.20;;
69240;SDS011;56352;55.750;13.198;2023-03-16T08:36:12;8.57;;;2.38;;
69240;SDS011;56352;55.750;13.198;2023-03-16T08:38:40;4.70;;;2.10;;
69240;SDS011;56352;55.750;13.198;2023-03-16T08:41:10;4.72;;;2.17;;
69240;SDS011;56352;55.750;13.198;2023-03-16T08:43:37;4.60;;;2.38;;
69240;SDS011;56352;55.750;13.198;2023-03-16T08:46:04;6.95;;;2.50;;
69240;SDS011;56352;55.750;13.198;2023-03-16T08:48:31;7.00;;;2.33;;
69240;SDS011;56352;55.750;13.198;2023-03-16T08:51:02;6.95;;;1.90;;
69240;SDS011;56352;55.750;13.198;2023-03-16T08:53:28;5.03;;;1.92;;
69240;SDS011;56352;55.750;13.198;2023-03-16T08:56:06;5.43;;;2.20;;
69240;SDS011;56352;55.750;13.198;2023-03-16T08:58:33;3.17;;;1.75;;
69240;SDS011;56352;55.750;13.198;2023-03-16T09:01:00;6.13;;;2.38;;
69240;SDS011;56352;55.750;13.198;2023-03-16T09:03:27;6.55;;;2.20;;
69240;SDS011;56352;55.750;13.198;2023-03-16T09:05:59;5.93;;;1.95;;
69240;SDS011;56352;55.750;13.198;2023-03-16T09:08:26;6.38;;;2.35;;
69240;SDS011;56352;55.750;13.198;2023-03-16T09:10:57;7.10;;;2.45;;
69240;SDS011;56352;55.750;13.198;2023-03-16T09:13:24;7.97;;;2.28;;
69240;SDS011;56352;55.750;13.198;2023-03-16T09:15:51;7.40;;;2.33;;
69240;SDS011;56352;55.750;13.198;2023-03-16T09:18:17;5.32;;;2.00;;
69240;SDS011;56352;55.750;13.198;2023-03-16T09:20:44;6.43;;;2.33;;
69240;SDS011;56352;55.750;13.198;2023-03-16T09:23:13;7.05;;;2.20;;
69240;SDS011;56352;55.750;13.198;2023-03-16T09:25:39;6.22;;;1.90;;
69240;SDS011;56352;55.750;13.198;2023-03-16T09:28:05;10.80;;;2.33;;
69240;SDS011;56352;55.750;13.198;2023-03-16T09:30:32;4.30;;;1.88;;
69240;SDS011;56352;55.750;13.198;2023-03-16T09:32:59;8.55;;;2.33;;
69240;SDS011;56352;55.750;13.198;2023-03-16T09:35:26;4.30;;;1.63;;
69240;SDS011;56352;55.750;13.198;2023-03-16T09:37:53;6.45;;;1.67;;
69240;SDS011;56352;55.750;13.198;2023-03-16T09:40:35;10.57;;;1.73;;
69240;SDS011;56352;55.750;13.198;2023-03-16T09:45:43;2.83;;;1.00;;
69240;SDS011;56352;55.750;13.198;2023-03-16T09:48:13;3.92;;;1.25;;
69240;SDS011;56352;55.750;13.198;2023-03-16T09:50:40;4.78;;;1.40;;
69240;SDS011;56352;55.750;13.198;2023-03-16T09:55:41;2.85;;;0.95;;
69240;SDS011;56352;55.750;13.198;2023-03-16T09:58:17;1.88;;;0.90;;
69240;SDS011;56352;55.750;13.198;2023-03-16T10:05:57;2.50;;;0.90;;
69240;SDS011;56352;55.750;13.198;2023-03-16T10:08:25;3.50;;;1.17;;
69240;SDS011;56352;55.750;13.198;2023-03-16T10:13:40;8.15;;;1.15;;
69240;SDS011;56352;55.750;13.198;2023-03-16T10:16:11;4.18;;;1.20;;
69240;SDS011;56352;55.750;13.198;2023-03-16T10:18:43;2.40;;;0.90;;
69240;SDS011;56352;55.750;13.198;2023-03-16T10:21:11;3.50;;;1.25;;
69240;SDS011;56352;55.750;13.198;2023-03-16T10:23:38;4.10;;;0.98;;
69240;SDS011;56352;55.750;13.198;2023-03-16T10:26:11;3.42;;;1.10;;
69240;SDS011;56352;55.750;13.198;2023-03-16T10:28:38;5.28;;;1.20;;
69240;SDS011;56352;55.750;13.198;2023-03-16T10:31:04;5.18;;;1.13;;
69240;SDS011;56352;55.750;13.198;2023-03-16T10:33:32;5.15;;;1.10;;
69240;SDS011;56352;55.750;13.198;2023-03-16T10:36:03;3.13;;;1.10;;
69240;SDS011;56352;55.750;13.198;2023-03-16T10:38:39;1.65;;;0.90;;
69240;SDS011;56352;55.750;13.198;2023-03-16T10:43:49;3.45;;;0.98;;
69240;SDS011;56352;55.750;13.198;2023-03-16T10:46:16;3.10;;;1.02;;
69240;SDS011;56352;55.750;13.198;2023-03-16T10:48:52;2.95;;;1.10;;
69240;SDS011;56352;55.750;13.198;2023-03-16T10:51:21;3.05;;;1.42;;
69240;SDS011;56352;55.750;13.198;2023-03-16T10:53:50;3.03;;;1.20;;
69240;SDS011;56352;55.750;13.198;2023-03-16T10:56:18;5.50;;;1.10;;
69240;SDS011;56352;55.750;13.198;2023-03-16T10:58:45;3.70;;;1.30;;
69240;SDS011;56352;55.750;13.198;2023-03-16T11:01:20;4.57;;;1.10;;
69240;SDS011;56352;55.750;13.198;2023-03-16T11:03:50;2.35;;;0.93;;
69240;SDS011;56352;55.750;13.198;2023-03-16T11:06:18;2.45;;;0.93;;
69240;SDS011;56352;55.750;13.198;2023-03-16T11:08:45;5.07;;;1.00;;
69240;SDS011;56352;55.750;13.198;2023-03-16T11:11:14;3.92;;;1.08;;
69240;SDS011;56352;55.750;13.198;2023-03-16T11:13:42;3.75;;;1.13;;
69240;SDS011;56352;55.750;13.198;2023-03-16T11:16:15;2.67;;;1.00;;
69240;SDS011;56352;55.750;13.198;2023-03-16T11:18:47;6.40;;;1.35;;
69240;SDS011;56352;55.750;13.198;2023-03-16T11:24:01;2.08;;;0.90;;
69240;SDS011;56352;55.750;13.198;2023-03-16T11:26:33;1.15;;;0.70;;
69240;SDS011;56352;55.750;13.198;2023-03-16T11:29:23;4.53;;;0.90;;
69240;SDS011;56352;55.750;13.198;2023-03-16T11:31:47;3.60;;;1.13;;
69240;SDS011;56352;55.750;13.198;2023-03-16T11:44:18;3.53;;;0.93;;
69240;SDS011;56352;55.750;13.198;2023-03-16T11:46:52;1.92;;;0.90;;
69240;SDS011;56352;55.750;13.198;2023-03-16T11:59:59;1.85;;;0.80;;
69240;SDS011;56352;55.750;13.198;2023-03-16T12:05:04;1.75;;;0.70;;
69240;SDS011;56352;55.750;13.198;2023-03-16T12:07:57;3.00;;;0.80;;
69240;SDS011;56352;55.750;13.198;2023-03-16T12:10:28;1.48;;;0.63;;
69240;SDS011;56352;55.750;13.198;2023-03-16T12:15:46;1.80;;;0.90;;
69240;SDS011;56352;55.750;13.198;2023-03-16T12:20:43;2.60;;;0.90;;
69240;SDS011;56352;55.750;13.198;2023-03-16T12:23:13;1.85;;;0.70;;
69240;SDS011;56352;55.750;13.198;2023-03-16T12:25:42;1.75;;;0.68;;
69240;SDS011;56352;55.750;13.198;2023-03-16T12:28:22;2.35;;;0.95;;
69240;SDS011;56352;55.750;13.198;2023-03-16T12:38:49;1.63;;;0.70;;
69240;SDS011;56352;55.750;13.198;2023-03-16T12:41:22;1.98;;;0.75;;
69240;SDS011;56352;55.750;13.198;2023-03-16T12:48:56;3.88;;;0.98;;
69240;SDS011;56352;55.750;13.198;2023-03-16T12:51:33;1.52;;;0.68;;
69240;SDS011;56352;55.750;13.198;2023-03-16T12:54:01;3.80;;;0.90;;
69240;SDS011;56352;55.750;13.198;2023-03-16T12:58:58;1.40;;;0.65;;
69240;SDS011;56352;55.750;13.198;2023-03-16T13:01:27;1.27;;;0.70;;
69240;SDS011;56352;55.750;13.198;2023-03-16T13:03:58;3.47;;;0.82;;
69240;SDS011;56352;55.750;13.198;2023-03-16T13:06:28;1.83;;;0.73;;
69240;SDS011;56352;55.750;13.198;2023-03-16T13:08:56;1.70;;;0.70;;
69240;SDS011;56352;55.750;13.198;2023-03-16T13:11:26;3.15;;;1.10;;
69240;SDS011;56352;55.750;13.198;2023-03-16T13:16:27;4.05;;;1.00;;
69240;SDS011;56352;55.750;13.198;2023-03-16T13:18:54;5.23;;;1.20;;
69240;SDS011;56352;55.750;13.198;2023-03-16T13:23:52;3.80;;;1.33;;
69240;SDS011;56352;55.750;13.198;2023-03-16T13:29:25;2.75;;;1.05;;
69240;SDS011;56352;55.750;13.198;2023-03-16T13:31:55;4.03;;;1.13;;
69240;SDS011;56352;55.750;13.198;2023-03-16T13:34:27;3.28;;;1.10;;
69240;SDS011;56352;55.750;13.198;2023-03-16T13:36:55;2.50;;;0.90;;
69240;SDS011;56352;55.750;13.198;2023-03-16T13:39:23;2.70;;;1.13;;
69240;SDS011;56352;55.750;13.198;2023-03-16T13:44:25;3.78;;;1.15;;
69240;SDS011;56352;55.750;13.198;2023-03-16T13:46:53;2.35;;;0.60;;
69240;SDS011;56352;55.750;13.198;2023-03-16T13:49:19;3.30;;;1.05;;
69240;SDS011;56352;55.750;13.198;2023-03-16T13:51:46;5.43;;;1.52;;
69240;SDS011;56352;55.750;13.198;2023-03-16T13:56:49;2.55;;;0.73;;
69240;SDS011;56352;55.750;13.198;2023-03-16T13:59:16;4.50;;;1.00;;
69240;SDS011;56352;55.750;13.198;2023-03-16T14:01:44;5.85;;;1.05;;
69240;SDS011;56352;55.750;13.198;2023-03-16T14:04:11;1.27;;;0.60;;
69240;SDS011;56352;55.750;13.198;2023-03-16T14:07:18;5.03;;;1.05;;
69240;SDS011;56352;55.750;13.198;2023-03-16T14:09:36;3.08;;;0.90;;
69240;SDS011;56352;55.750;13.198;2023-03-16T14:12:03;3.10;;;0.60;;
69240;SDS011;56352;55.750;13.198;2023-03-16T14:14:31;2.05;;;0.63;;
69240;SDS011;56352;55.750;13.198;2023-03-16T14:17:03;3.45;;;0.90;;
69240;SDS011;56352;55.750;13.198;2023-03-16T14:19:36;0.50;;;0.40;;
69240;SDS011;56352;55.750;13.198;2023-03-16T14:22:14;1.25;;;0.80;;
69240;SDS011;56352;55.750;13.198;2023-03-16T14:24:41;3.72;;;0.80;;
69240;SDS011;56352;55.750;13.198;2023-03-16T14:29:42;1.55;;;0.70;;
69240;SDS011;56352;55.750;13.198;2023-03-16T14:32:25;1.20;;;0.70;;
69240;SDS011;56352;55.750;13.198;2023-03-16T14:37:40;0.98;;;0.57;;
69240;SDS011;56352;55.750;13.198;2023-03-16T14:40:17;3.58;;;0.85;;
69240;SDS011;56352;55.750;13.198;2023-03-16T14:42:46;4.68;;;0.80;;
69240;SDS011;56352;55.750;13.198;2023-03-16T14:45:13;2.85;;;0.70;;
69240;SDS011;56352;55.750;13.198;2023-03-16T14:47:41;4.13;;;0.70;;
69240;SDS011;56352;55.750;13.198;2023-03-16T14:50:08;2.55;;;0.80;;
69240;SDS011;56352;55.750;13.198;2023-03-16T14:52:39;1.20;;;0.55;;
69240;SDS011;56352;55.750;13.198;2023-03-16T14:55:14;1.88;;;0.60;;
69240;SDS011;56352;55.750;13.198;2023-03-16T14:57:41;3.83;;;0.90;;
69240;SDS011;56352;55.750;13.198;2023-03-16T15:00:08;1.27;;;0.65;;
69240;SDS011;56352;55.750;13.198;2023-03-16T15:05:03;4.60;;;1.10;;
69240;SDS011;56352;55.750;13.198;2023-03-16T15:07:31;0.60;;;0.50;;
69240;SDS011;56352;55.750;13.198;2023-03-16T15:12:26;1.35;;;0.43;;
69240;SDS011;56352;55.750;13.198;2023-03-16T15:14:52;2.58;;;0.50;;
69240;SDS011;56352;55.750;13.198;2023-03-16T15:17:38;2.60;;;0.63;;
69240;SDS011;56352;55.750;13.198;2023-03-16T15:20:04;3.10;;;0.80;;
69240;SDS011;56352;55.750;13.198;2023-03-16T15:22:33;2.10;;;0.70;;
69240;SDS011;56352;55.750;13.198;2023-03-16T15:25:04;1.73;;;0.60;;
69240;SDS011;56352;55.750;13.198;2023-03-16T15:27:36;2.85;;;0.68;;
69240;SDS011;56352;55.750;13.198;2023-03-16T15:30:05;1.17;;;0.47;;
69240;SDS011;56352;55.750;13.198;2023-03-16T15:32:32;2.03;;;0.77;;
69240;SDS011;56352;55.750;13.198;2023-03-16T15:34:58;1.98;;;0.82;;
69240;SDS011;56352;55.750;13.198;2023-03-16T15:37:25;1.95;;;0.55;;
69240;SDS011;56352;55.750;13.198;2023-03-16T15:39:53;2.45;;;0.70;;
69240;SDS011;56352;55.750;13.198;2023-03-16T15:42:19;3.40;;;0.65;;
69240;SDS011;56352;55.750;13.198;2023-03-16T15:44:46;4.43;;;0.98;;
69240;SDS011;56352;55.750;13.198;2023-03-16T15:47:13;1.98;;;0.60;;
69240;SDS011;56352;55.750;13.198;2023-03-16T15:49:41;2.58;;;0.60;;
69240;SDS011;56352;55.750;13.198;2023-03-16T15:52:35;2.17;;;0.60;;
69240;SDS011;56352;55.750;13.198;2023-03-16T15:55:00;2.88;;;1.30;;
69240;SDS011;56352;55.750;13.198;2023-03-16T15:57:30;3.08;;;0.80;;
69240;SDS011;56352;55.750;13.198;2023-03-16T15:59:57;2.22;;;0.60;;
69240;SDS011;56352;55.750;13.198;2023-03-16T16:02:25;1.00;;;0.45;;
69240;SDS011;56352;55.750;13.198;2023-03-16T16:04:53;1.88;;;0.50;;
69240;SDS011;56352;55.750;13.198;2023-03-16T16:07:20;1.85;;;0.60;;
69240;SDS011;56352;55.750;13.198;2023-03-16T16:09:46;2.60;;;0.60;;
69240;SDS011;56352;55.750;13.198;2023-03-16T16:12:13;1.70;;;0.50;;
69240;SDS011;56352;55.750;13.198;2023-03-16T16:14:39;1.38;;;0.57;;
69240;SDS011;56352;55.750;13.198;2023-03-16T16:17:10;1.48;;;0.50;;